Time;durP1;ratioP1;P1;durP2;ratioP2;P2;SDS_P1;SDS_P2;PMS_P1;PMS_P2;Temp;Humidity;BMP_temperature;BMP_pressure;BME280_temperature;BME280_humidity;BME280_pressure;Samples;Min_cycle;Max_cycle;Signal;HPM_P1;HPM_P2
2023/09/03 00:01:40;;;;;;;1.90;1.80;;;;;;;;;;5080052;28;20478;-84
2023/09/03 00:04:06;;;;;;;2.47;1.90;;;;;;;;;;5078840;28;20440;-84
2023/09/03 00:06:32;;;;;;;2.42;1.90;;;;;;;;;;5072017;28;20473;-84
2023/09/03 00:08:58;;;;;;;2.58;2.38;;;;;;;;;;5079085;28;20382;-84
2023/09/03 00:11:24;;;;;;;2.33;2.13;;;;;;;;;;5096585;28;20410;-84
2023/09/03 00:13:50;;;;;;;2.38;2.08;;;;;;;;;;5096752;28;20864;-84
2023/09/03 00:16:16;;;;;;;2.42;2.22;;;;;;;;;;5079411;28;20394;-84
2023/09/03 00:18:42;;;;;;;3.42;2.63;;;;;;;;;;5097620;28;20430;-84
2023/09/03 00:21:08;;;;;;;2.80;2.60;;;;;;;;;;5096959;28;20411;-84
2023/09/03 00:23:34;;;;;;;3.50;2.63;;;;;;;;;;5079075;28;20847;-84
2023/09/03 00:26:01;;;;;;;2.90;2.60;;;;;;;;;;5097184;28;20385;-84
2023/09/03 00:28:28;;;;;;;2.72;2.53;;;;;;;;;;5098183;28;20382;-84
2023/09/03 00:31:10;;;;;;;3.65;2.95;;;;;;;;;;5096940;28;20485;-84
2023/09/03 00:33:37;;;;;;;3.50;3.20;;;;;;;;;;5073465;28;20379;-84
2023/09/03 00:36:04;;;;;;;3.75;3.45;;;;;;;;;;5096581;28;20382;-85
2023/09/03 00:38:31;;;;;;;3.83;3.53;;;;;;;;;;5097459;28;20855;-84
2023/09/03 00:40:57;;;;;;;3.80;3.23;;;;;;;;;;5097291;28;20398;-84
2023/09/03 00:43:23;;;;;;;4.25;3.95;;;;;;;;;;5079163;28;20401;-85
2023/09/03 00:45:49;;;;;;;4.43;4.03;;;;;;;;;;5079682;28;20383;-84
2023/09/03 00:48:17;;;;;;;4.13;3.72;;;;;;;;;;5096954;28;20397;-84
2023/09/03 00:50:43;;;;;;;4.00;3.70;;;;;;;;;;5078530;28;20420;-84
2023/09/03 00:53:10;;;;;;;4.18;3.88;;;;;;;;;;5079289;28;20397;-84
2023/09/03 00:55:37;;;;;;;3.63;3.33;;;;;;;;;;5097155;28;20464;-84
2023/09/03 00:58:06;;;;;;;3.50;3.20;;;;;;;;;;5097024;28;20806;-84
2023/09/03 01:00:32;;;;;;;3.55;3.25;;;;;;;;;;5097090;28;20382;-84
2023/09/03 01:03:00;;;;;;;6.10;5.60;;;;;;;;;;5096524;28;20789;-85
2023/09/03 01:05:26;;;;;;;6.00;5.50;;;;;;;;;;5096928;28;20740;-84
2023/09/03 01:07:52;;;;;;;4.30;3.60;;;;;;;;;;5094564;28;20447;-84
2023/09/03 01:10:20;;;;;;;5.30;4.90;;;;;;;;;;5096017;28;20488;-84
2023/09/03 01:12:59;;;;;;;6.43;5.82;;;;;;;;;;5096632;28;20394;-84
2023/09/03 01:15:34;;;;;;;6.50;5.90;;;;;;;;;;5078371;28;20386;-84
2023/09/03 01:18:03;;;;;;;5.78;5.18;;;;;;;;;;5078450;28;20388;-84
2023/09/03 01:20:29;;;;;;;4.18;3.88;;;;;;;;;;5096493;28;20396;-84
2023/09/03 01:22:55;;;;;;;3.70;3.40;;;;;;;;;;5096389;28;20430;-84
2023/09/03 01:25:40;;;;;;;2.70;2.50;;;;;;;;;;5097146;28;20828;-85
2023/09/03 01:28:12;;;;;;;2.80;2.50;;;;;;;;;;5096459;28;20374;-84
2023/09/03 01:30:38;;;;;;;3.50;2.90;;;;;;;;;;5096434;28;20464;-84
2023/09/03 01:33:05;;;;;;;2.75;2.55;;;;;;;;;;5096606;28;20378;-84
2023/09/03 01:35:32;;;;;;;3.13;2.45;;;;;;;;;;5096668;28;20435;-84
2023/09/03 01:37:59;;;;;;;2.30;2.10;;;;;;;;;;5078161;28;20474;-84
2023/09/03 01:40:25;;;;;;;2.60;2.40;;;;;;;;;;5096676;28;20948;-84
2023/09/03 01:42:50;;;;;;;2.55;2.35;;;;;;;;;;5078626;28;20426;-84
2023/09/03 01:45:17;;;;;;;2.55;2.35;;;;;;;;;;5096678;28;20393;-85
2023/09/03 01:48:05;;;;;;;2.00;1.80;;;;;;;;;;5096650;28;20389;-85
2023/09/03 01:50:51;;;;;;;1.88;1.77;;;;;;;;;;5081345;28;20409;-84
2023/09/03 01:53:22;;;;;;;1.95;1.80;;;;;;;;;;5099615;28;20468;-84
2023/09/03 01:55:52;;;;;;;2.00;1.88;;;;;;;;;;5099590;28;20780;-84
2023/09/03 01:58:19;;;;;;;2.13;2.03;;;;;;;;;;5099647;28;20394;-84
2023/09/03 02:00:45;;;;;;;2.15;1.95;;;;;;;;;;5091586;28;20394;-85
2023/09/03 02:03:11;;;;;;;2.58;2.38;;;;;;;;;;5080103;28;20390;-84
2023/09/03 02:05:38;;;;;;;4.07;2.42;;;;;;;;;;5099760;28;20386;-85
2023/09/03 02:08:04;;;;;;;4.13;2.40;;;;;;;;;;5107145;28;20445;-85
2023/09/03 02:10:30;;;;;;;2.85;1.92;;;;;;;;;;5091981;28;20941;-84
2023/09/03 02:12:56;;;;;;;2.05;1.80;;;;;;;;;;5103819;28;20398;-84
2023/09/03 02:15:22;;;;;;;2.17;1.98;;;;;;;;;;5089290;28;20449;-84
2023/09/03 02:17:48;;;;;;;2.53;1.90;;;;;;;;;;5110215;28;20390;-84
2023/09/03 02:20:15;;;;;;;1.90;1.80;;;;;;;;;;5086713;28;20394;-84
2023/09/03 02:22:40;;;;;;;2.40;1.85;;;;;;;;;;5094910;28;20472;-84
2023/09/03 02:25:07;;;;;;;2.63;1.83;;;;;;;;;;5090082;28;20452;-84
2023/09/03 02:27:33;;;;;;;2.13;1.98;;;;;;;;;;5111266;28;20419;-84
2023/09/03 02:29:59;;;;;;;2.92;2.13;;;;;;;;;;5109208;28;20385;-84
2023/09/03 02:32:25;;;;;;;2.15;1.95;;;;;;;;;;5099101;28;20378;-84
2023/09/03 02:34:51;;;;;;;2.10;1.75;;;;;;;;;;5114818;28;20380;-85
2023/09/03 02:37:18;;;;;;;1.92;1.80;;;;;;;;;;5114618;28;20392;-84
2023/09/03 02:39:44;;;;;;;1.88;1.65;;;;;;;;;;5112530;28;20408;-84
2023/09/03 02:42:10;;;;;;;2.67;1.83;;;;;;;;;;5115154;28;20393;-85
2023/09/03 02:44:36;;;;;;;1.83;1.73;;;;;;;;;;5109405;28;20379;-84
2023/09/03 02:47:02;;;;;;;1.98;1.80;;;;;;;;;;5085195;28;20394;-84
2023/09/03 02:49:28;;;;;;;3.60;1.95;;;;;;;;;;5080698;28;20397;-84
2023/09/03 02:51:54;;;;;;;2.85;1.88;;;;;;;;;;5098825;28;20414;-84
2023/09/03 02:54:20;;;;;;;3.05;1.80;;;;;;;;;;5098870;28;20438;-84
2023/09/03 02:56:46;;;;;;;2.27;2.07;;;;;;;;;;5098858;28;20378;-84
2023/09/03 02:59:12;;;;;;;1.95;1.75;;;;;;;;;;5081224;28;20386;-84
2023/09/03 03:01:38;;;;;;;2.10;1.83;;;;;;;;;;5099053;28;20740;-84
2023/09/03 03:04:04;;;;;;;2.35;2.13;;;;;;;;;;5098971;28;20394;-84
2023/09/03 03:06:30;;;;;;;3.10;1.93;;;;;;;;;;5098060;28;20374;-84
2023/09/03 03:08:56;;;;;;;2.10;1.90;;;;;;;;;;5067039;28;20407;-84
2023/09/03 03:11:23;;;;;;;2.20;2.00;;;;;;;;;;5098575;28;20409;-84
2023/09/03 03:13:51;;;;;;;1.95;1.77;;;;;;;;;;5095476;28;20374;-84
2023/09/03 03:16:18;;;;;;;2.40;2.20;;;;;;;;;;5098262;28;20382;-84
2023/09/03 03:18:45;;;;;;;1.98;1.88;;;;;;;;;;5098639;28;20382;-84
2023/09/03 03:21:15;;;;;;;2.40;2.00;;;;;;;;;;5096513;28;20446;-84
2023/09/03 03:23:41;;;;;;;3.08;1.88;;;;;;;;;;5088759;28;20378;-84
2023/09/03 03:26:07;;;;;;;2.33;1.90;;;;;;;;;;5098182;28;20386;-84
2023/09/03 03:28:34;;;;;;;2.90;2.35;;;;;;;;;;5098610;28;20383;-84
2023/09/03 03:31:09;;;;;;;2.40;2.20;;;;;;;;;;5098152;28;20976;-84
2023/09/03 03:33:35;;;;;;;2.10;1.90;;;;;;;;;;5095087;28;20424;-85
2023/09/03 03:36:01;;;;;;;2.50;2.30;;;;;;;;;;5092553;28;20389;-84
2023/09/03 03:38:27;;;;;;;4.70;2.40;;;;;;;;;;5097959;28;20469;-84
2023/09/03 03:40:53;;;;;;;2.30;2.10;;;;;;;;;;5098013;28;20479;-84
2023/09/03 03:43:19;;;;;;;2.45;2.25;;;;;;;;;;5097696;28;20386;-84
2023/09/03 03:45:45;;;;;;;2.42;1.98;;;;;;;;;;5079980;28;20422;-84
2023/09/03 03:48:11;;;;;;;2.10;1.90;;;;;;;;;;5080191;28;20465;-84
2023/09/03 03:50:37;;;;;;;2.17;1.97;;;;;;;;;;5098667;28;20409;-84
2023/09/03 03:53:03;;;;;;;2.60;2.20;;;;;;;;;;5098227;28;20417;-84
2023/09/03 03:55:29;;;;;;;2.20;2.00;;;;;;;;;;5080370;28;20453;-84
2023/09/03 03:57:55;;;;;;;4.47;2.03;;;;;;;;;;5098201;28;20389;-84
2023/09/03 04:00:21;;;;;;;2.42;2.22;;;;;;;;;;5077681;28;20382;-84
2023/09/03 04:02:47;;;;;;;1.85;1.75;;;;;;;;;;5097625;28;20370;-84
2023/09/03 04:05:13;;;;;;;2.20;2.00;;;;;;;;;;5097532;28;20386;-84
2023/09/03 04:07:42;;;;;;;2.38;1.73;;;;;;;;;;5097499;28;20386;-84
2023/09/03 04:10:08;;;;;;;2.10;1.80;;;;;;;;;;5097725;28;20393;-84
2023/09/03 04:12:34;;;;;;;2.83;1.70;;;;;;;;;;5065686;28;20884;-84
2023/09/03 04:15:00;;;;;;;1.92;1.80;;;;;;;;;;5097905;28;20393;-84
2023/09/03 04:17:26;;;;;;;2.15;1.95;;;;;;;;;;5079205;28;20422;-84
2023/09/03 04:19:54;;;;;;;2.13;1.93;;;;;;;;;;5096902;28;20397;-84
2023/09/03 04:22:20;;;;;;;2.63;2.00;;;;;;;;;;5092483;28;20413;-84
2023/09/03 04:24:46;;;;;;;2.88;2.05;;;;;;;;;;5088707;28;20744;-84
2023/09/03 04:27:12;;;;;;;2.08;1.70;;;;;;;;;;5093305;28;20465;-83
2023/09/03 04:29:38;;;;;;;2.15;1.95;;;;;;;;;;5092910;28;20389;-83
2023/09/03 04:32:04;;;;;;;2.40;1.77;;;;;;;;;;5074441;28;20484;-83
2023/09/03 04:34:30;;;;;;;2.50;1.73;;;;;;;;;;5084035;28;20430;-83
2023/09/03 04:36:56;;;;;;;2.92;2.03;;;;;;;;;;5093518;28;20385;-84
2023/09/03 04:39:22;;;;;;;2.70;2.20;;;;;;;;;;5093505;28;20735;-84
2023/09/03 04:41:48;;;;;;;1.85;1.75;;;;;;;;;;5061614;28;20370;-84
2023/09/03 04:44:14;;;;;;;2.55;2.22;;;;;;;;;;5093910;28;20389;-84
2023/09/03 04:46:40;;;;;;;3.10;2.13;;;;;;;;;;5093871;28;20378;-84
2023/09/03 04:49:06;;;;;;;2.60;2.15;;;;;;;;;;5079027;28;20450;-84
2023/09/03 04:51:33;;;;;;;2.50;2.30;;;;;;;;;;5094003;28;20414;-84
2023/09/03 04:53:59;;;;;;;2.40;2.20;;;;;;;;;;5094387;28;20373;-84
2023/09/03 04:56:26;;;;;;;2.30;2.10;;;;;;;;;;5094647;28;20846;-84
2023/09/03 04:58:51;;;;;;;3.15;2.85;;;;;;;;;;5094809;28;20848;-84
2023/09/03 05:01:18;;;;;;;2.20;2.00;;;;;;;;;;5093883;28;20473;-84
2023/09/03 05:03:44;;;;;;;2.40;2.20;;;;;;;;;;5093848;28;20405;-84
2023/09/03 05:06:15;;;;;;;2.37;2.17;;;;;;;;;;5077104;28;20386;-84
2023/09/03 05:08:41;;;;;;;2.33;2.05;;;;;;;;;;5095188;28;20385;-84
2023/09/03 05:11:12;;;;;;;4.80;2.38;;;;;;;;;;5076546;28;20790;-84
2023/09/03 05:13:38;;;;;;;2.50;1.98;;;;;;;;;;5094925;28;20393;-83
2023/09/03 05:16:05;;;;;;;3.00;2.17;;;;;;;;;;5077278;28;20755;-84
2023/09/03 05:18:31;;;;;;;2.42;2.22;;;;;;;;;;5077461;28;20386;-84
2023/09/03 05:20:57;;;;;;;2.60;2.10;;;;;;;;;;5077825;28;20382;-84
2023/09/03 05:23:23;;;;;;;2.67;2.20;;;;;;;;;;5079334;28;20400;-84
2023/09/03 05:25:49;;;;;;;2.55;1.90;;;;;;;;;;5099620;28;20378;-84
2023/09/03 05:28:15;;;;;;;2.38;2.10;;;;;;;;;;5081827;28;20386;-84
2023/09/03 05:30:41;;;;;;;2.42;2.10;;;;;;;;;;5099406;28;20509;-84
2023/09/03 05:33:07;;;;;;;2.17;2.07;;;;;;;;;;5099400;28;20393;-84
2023/09/03 05:35:33;;;;;;;2.15;1.90;;;;;;;;;;5081477;28;20457;-84
2023/09/03 05:37:59;;;;;;;2.28;2.08;;;;;;;;;;5079980;28;20386;-84
2023/09/03 05:40:25;;;;;;;2.40;2.10;;;;;;;;;;5081409;28;20389;-84
2023/09/03 05:42:51;;;;;;;2.30;2.10;;;;;;;;;;5099066;28;20435;-84
2023/09/03 05:45:17;;;;;;;2.40;2.20;;;;;;;;;;5099305;28;20445;-84
2023/09/03 05:47:43;;;;;;;3.35;2.10;;;;;;;;;;5081349;28;20405;-85
2023/09/03 05:50:09;;;;;;;2.30;2.10;;;;;;;;;;5099898;28;20459;-84
2023/09/03 05:52:35;;;;;;;2.80;2.00;;;;;;;;;;5099992;28;20409;-84
2023/09/03 05:55:01;;;;;;;1.95;1.77;;;;;;;;;;5100219;28;20844;-84
2023/09/03 05:57:27;;;;;;;2.20;2.00;;;;;;;;;;5081132;28;20394;-84
2023/09/03 05:59:54;;;;;;;2.67;2.00;;;;;;;;;;5099462;28;20858;-84
2023/09/03 06:02:20;;;;;;;3.90;2.22;;;;;;;;;;5099693;28;20374;-84
2023/09/03 06:04:46;;;;;;;2.10;1.90;;;;;;;;;;5098958;28;20467;-84
2023/09/03 06:07:13;;;;;;;2.65;1.95;;;;;;;;;;5067413;28;20990;-84
2023/09/03 06:09:39;;;;;;;2.83;2.25;;;;;;;;;;5100142;28;20374;-84
2023/09/03 06:12:05;;;;;;;2.50;2.30;;;;;;;;;;5080957;28;20422;-84
2023/09/03 06:14:31;;;;;;;2.90;2.15;;;;;;;;;;5099817;28;20751;-84
2023/09/03 06:16:57;;;;;;;2.25;1.92;;;;;;;;;;5099708;28;20386;-84
2023/09/03 06:19:23;;;;;;;2.10;1.90;;;;;;;;;;5081511;28;20422;-84
2023/09/03 06:21:49;;;;;;;2.22;1.88;;;;;;;;;;5071507;28;20471;-84
2023/09/03 06:24:16;;;;;;;2.92;1.90;;;;;;;;;;5095786;28;20720;-84
2023/09/03 06:26:42;;;;;;;2.25;2.05;;;;;;;;;;5099455;28;20389;-84
2023/09/03 06:29:08;;;;;;;2.10;1.60;;;;;;;;;;5099257;28;20924;-84
2023/09/03 06:31:34;;;;;;;1.67;1.58;;;;;;;;;;5098525;28;20405;-84
2023/09/03 06:34:00;;;;;;;2.40;1.90;;;;;;;;;;5081132;28;20390;-85
2023/09/03 06:36:26;;;;;;;1.80;1.70;;;;;;;;;;5099302;28;20453;-85
2023/09/03 06:38:52;;;;;;;2.50;2.10;;;;;;;;;;5099770;28;20421;-84
2023/09/03 06:41:18;;;;;;;2.33;2.03;;;;;;;;;;5098152;28;20420;-84
2023/09/03 06:43:44;;;;;;;1.92;1.73;;;;;;;;;;5098880;28;20381;-84
2023/09/03 06:46:10;;;;;;;2.03;1.83;;;;;;;;;;5098918;28;20427;-84
2023/09/03 06:48:36;;;;;;;2.33;1.67;;;;;;;;;;5098375;28;20382;-84
2023/09/03 06:51:04;;;;;;;2.58;2.38;;;;;;;;;;5097764;28;20402;-85
2023/09/03 06:53:30;;;;;;;3.23;2.50;;;;;;;;;;5099011;28;20382;-84
2023/09/03 06:55:57;;;;;;;2.10;1.85;;;;;;;;;;5080463;28;20929;-87
2023/09/03 06:58:23;;;;;;;2.97;1.60;;;;;;;;;;5094284;28;20839;-86
2023/09/03 07:00:49;;;;;;;2.30;1.77;;;;;;;;;;5094036;28;20374;-86
2023/09/03 07:03:15;;;;;;;2.00;1.70;;;;;;;;;;5094412;28;20425;-86
2023/09/03 07:05:41;;;;;;;2.00;1.77;;;;;;;;;;5075825;28;20406;-86
2023/09/03 07:08:07;;;;;;;3.10;1.70;;;;;;;;;;5093799;28;20379;-86
2023/09/03 07:10:33;;;;;;;3.33;1.80;;;;;;;;;;5075711;28;20458;-86
2023/09/03 07:12:59;;;;;;;1.90;1.60;;;;;;;;;;5094397;28;20461;-86
2023/09/03 07:15:25;;;;;;;2.20;1.90;;;;;;;;;;5094564;28;20833;-85
2023/09/03 07:17:51;;;;;;;2.10;1.70;;;;;;;;;;5080300;28;20382;-83
2023/09/03 07:20:17;;;;;;;1.95;1.67;;;;;;;;;;5100661;28;20388;-84
2023/09/03 07:22:43;;;;;;;2.80;1.80;;;;;;;;;;5100778;28;20456;-83
2023/09/03 07:25:10;;;;;;;2.20;1.80;;;;;;;;;;5082141;28;20374;-85
2023/09/03 07:27:38;;;;;;;2.10;1.90;;;;;;;;;;5099826;28;20397;-83
2023/09/03 07:30:05;;;;;;;2.10;1.67;;;;;;;;;;5099097;28;20388;-84
2023/09/03 07:32:31;;;;;;;2.63;1.77;;;;;;;;;;5080940;28;20428;-84
2023/09/03 07:34:57;;;;;;;2.28;2.00;;;;;;;;;;5100629;28;20382;-84
2023/09/03 07:37:23;;;;;;;2.13;1.92;;;;;;;;;;5101845;28;20824;-84
2023/09/03 07:39:49;;;;;;;1.85;1.67;;;;;;;;;;5082192;28;20394;-83
2023/09/03 07:42:15;;;;;;;2.35;2.08;;;;;;;;;;5098831;28;20461;-84
2023/09/03 07:44:41;;;;;;;1.98;1.73;;;;;;;;;;5100824;28;20413;-84
2023/09/03 07:47:07;;;;;;;2.90;1.92;;;;;;;;;;5099704;28;20438;-84
2023/09/03 07:49:33;;;;;;;3.50;2.10;;;;;;;;;;5082552;28;20428;-84
2023/09/03 07:51:59;;;;;;;2.83;2.10;;;;;;;;;;5081659;28;20481;-84
2023/09/03 07:54:25;;;;;;;3.80;2.07;;;;;;;;;;5100816;28;20388;-85
2023/09/03 07:56:54;;;;;;;2.17;1.92;;;;;;;;;;5082221;28;20386;-85
2023/09/03 07:59:20;;;;;;;3.63;2.10;;;;;;;;;;5101258;28;20400;-85
2023/09/03 08:01:46;;;;;;;2.00;1.80;;;;;;;;;;5081953;28;20390;-84
2023/09/03 08:04:12;;;;;;;2.25;1.77;;;;;;;;;;5098129;28;20844;-84
2023/09/03 08:06:38;;;;;;;2.47;1.92;;;;;;;;;;5079619;28;20398;-84
2023/09/03 08:09:05;;;;;;;2.13;1.92;;;;;;;;;;5097635;28;20438;-83
2023/09/03 08:11:32;;;;;;;2.00;1.77;;;;;;;;;;5095594;28;20414;-83
2023/09/03 08:13:59;;;;;;;3.05;1.85;;;;;;;;;;5095437;28;20389;-83
2023/09/03 08:16:25;;;;;;;1.80;1.60;;;;;;;;;;5098458;28;20389;-83
2023/09/03 08:18:51;;;;;;;2.05;1.70;;;;;;;;;;5098393;28;20382;-83
2023/09/03 08:21:17;;;;;;;2.60;1.83;;;;;;;;;;5099122;28;20820;-83
2023/09/03 08:23:43;;;;;;;1.80;1.70;;;;;;;;;;5098550;28;20394;-84
2023/09/03 08:26:09;;;;;;;3.28;1.95;;;;;;;;;;5098101;28;20404;-84
2023/09/03 08:28:35;;;;;;;2.20;1.80;;;;;;;;;;5080208;28;20457;-84
2023/09/03 08:31:01;;;;;;;3.28;1.77;;;;;;;;;;5098552;28;20417;-84
2023/09/03 08:33:27;;;;;;;2.10;1.88;;;;;;;;;;5098016;28;20406;-83
2023/09/03 08:35:53;;;;;;;2.20;2.00;;;;;;;;;;5097987;28;20386;-84
2023/09/03 08:38:19;;;;;;;2.25;1.83;;;;;;;;;;5098965;28;20435;-84
2023/09/03 08:40:45;;;;;;;1.83;1.70;;;;;;;;;;5098437;28;20376;-84
2023/09/03 08:43:12;;;;;;;3.33;2.00;;;;;;;;;;5079188;28;20478;-83
2023/09/03 08:45:41;;;;;;;1.92;1.80;;;;;;;;;;5098399;28;20382;-84
2023/09/03 08:48:07;;;;;;;2.60;2.00;;;;;;;;;;5098107;28;20834;-83
2023/09/03 08:50:34;;;;;;;2.17;1.98;;;;;;;;;;5097558;28;20414;-83
2023/09/03 08:53:01;;;;;;;2.38;2.03;;;;;;;;;;5098136;28;20382;-84
2023/09/03 08:55:29;;;;;;;1.95;1.70;;;;;;;;;;5099360;28;20381;-84
2023/09/03 08:57:55;;;;;;;2.63;1.88;;;;;;;;;;5100663;28;20378;-84
2023/09/03 09:00:21;;;;;;;2.28;1.90;;;;;;;;;;5102076;28;20435;-84
2023/09/03 09:02:48;;;;;;;2.38;1.80;;;;;;;;;;5083359;28;20473;-84
2023/09/03 09:05:15;;;;;;;1.95;1.75;;;;;;;;;;5102462;28;20382;-83
2023/09/03 09:07:41;;;;;;;2.50;1.80;;;;;;;;;;5101545;28;20378;-84
2023/09/03 09:10:09;;;;;;;1.90;1.80;;;;;;;;;;5102371;28;20904;-84
2023/09/03 09:12:43;;;;;;;2.15;1.90;;;;;;;;;;5101952;28;20400;-84
2023/09/03 09:15:09;;;;;;;1.88;1.77;;;;;;;;;;5101854;28;20413;-84
2023/09/03 09:17:39;;;;;;;2.85;2.03;;;;;;;;;;5083088;28;20371;-83
2023/09/03 09:20:08;;;;;;;2.08;1.90;;;;;;;;;;5101228;28;20382;-83
2023/09/03 09:22:40;;;;;;;1.60;1.50;;;;;;;;;;5083400;28;20459;-84
2023/09/03 09:25:06;;;;;;;2.10;1.90;;;;;;;;;;5101832;28;20378;-84
2023/09/03 09:27:35;;;;;;;1.90;1.80;;;;;;;;;;5102630;28;20455;-84
2023/09/03 09:30:12;;;;;;;1.98;1.80;;;;;;;;;;5084190;28;20397;-84
2023/09/03 09:32:40;;;;;;;2.05;1.60;;;;;;;;;;5102279;28;20409;-84
2023/09/03 09:35:07;;;;;;;2.08;1.70;;;;;;;;;;5101960;28;20378;-84
2023/09/03 09:37:39;;;;;;;2.40;1.83;;;;;;;;;;5101935;28;20413;-84
2023/09/03 09:40:06;;;;;;;3.10;2.00;;;;;;;;;;5102218;28;20388;-84
2023/09/03 09:42:32;;;;;;;2.00;1.80;;;;;;;;;;5084323;28;20375;-84
2023/09/03 09:44:59;;;;;;;2.00;1.80;;;;;;;;;;5102694;28;20390;-84
2023/09/03 09:47:26;;;;;;;2.50;1.70;;;;;;;;;;5101768;28;20366;-84
2023/09/03 09:49:52;;;;;;;3.20;1.70;;;;;;;;;;5102597;28;20382;-84
2023/09/03 09:52:18;;;;;;;2.10;1.90;;;;;;;;;;5102722;28;20409;-84
2023/09/03 09:54:45;;;;;;;2.53;2.10;;;;;;;;;;5102571;28;20844;-84
2023/09/03 09:57:15;;;;;;;2.05;1.77;;;;;;;;;;5099201;28;20735;-84
2023/09/03 09:59:42;;;;;;;2.35;1.80;;;;;;;;;;5098170;28;20455;-84
2023/09/03 10:02:15;;;;;;;2.00;1.80;;;;;;;;;;5102048;28;20378;-84
2023/09/03 10:04:44;;;;;;;2.10;1.90;;;;;;;;;;5102846;28;20385;-84
2023/09/03 10:07:11;;;;;;;2.00;1.80;;;;;;;;;;5102814;28;20944;-84
2023/09/03 10:09:37;;;;;;;3.07;1.80;;;;;;;;;;5101968;28;20451;-85
2023/09/03 10:12:07;;;;;;;2.20;2.00;;;;;;;;;;5102554;28;20413;-83
2023/09/03 10:14:33;;;;;;;2.95;1.83;;;;;;;;;;5085100;28;20401;-84
2023/09/03 10:17:00;;;;;;;2.00;1.60;;;;;;;;;;5102612;28;20400;-84
2023/09/03 10:19:50;;;;;;;2.03;1.83;;;;;;;;;;5102291;28;20392;-84
2023/09/03 10:22:18;;;;;;;2.30;1.90;;;;;;;;;;5090743;28;20401;-84
2023/09/03 10:24:46;;;;;;;2.10;1.90;;;;;;;;;;5103067;28;20377;-84
2023/09/03 10:27:15;;;;;;;1.70;1.60;;;;;;;;;;5086158;28;20397;-84
2023/09/03 10:29:42;;;;;;;1.92;1.58;;;;;;;;;;5103700;28;20381;-84
2023/09/03 10:32:08;;;;;;;1.73;1.50;;;;;;;;;;5102087;28;20510;-84
2023/09/03 10:34:37;;;;;;;3.65;1.55;;;;;;;;;;5103045;28;20412;-84
2023/09/03 10:37:04;;;;;;;1.65;1.55;;;;;;;;;;5102222;28;20435;-84
2023/09/03 10:39:30;;;;;;;1.50;1.40;;;;;;;;;;5103218;28;20447;-84
2023/09/03 10:42:17;;;;;;;2.33;1.50;;;;;;;;;;5102891;28;20459;-84
2023/09/03 10:44:54;;;;;;;1.73;1.63;;;;;;;;;;5084077;28;20472;-84
2023/09/03 10:47:20;;;;;;;1.58;1.48;;;;;;;;;;5103330;28;20448;-84
2023/09/03 10:49:54;;;;;;;1.50;1.40;;;;;;;;;;5102420;28;20382;-84
2023/09/03 10:52:32;;;;;;;1.60;1.50;;;;;;;;;;5101642;28;20410;-84
2023/09/03 10:55:15;;;;;;;3.40;1.80;;;;;;;;;;5102297;28;20385;-84
2023/09/03 10:57:41;;;;;;;1.77;1.47;;;;;;;;;;5091002;28;20855;-85
2023/09/03 11:00:08;;;;;;;1.90;1.60;;;;;;;;;;5101839;28;20393;-84
2023/09/03 11:02:36;;;;;;;2.13;1.60;;;;;;;;;;5090852;28;20413;-84
2023/09/03 11:05:09;;;;;;;1.50;1.40;;;;;;;;;;5101909;28;20381;-84
2023/09/03 11:07:35;;;;;;;2.97;1.60;;;;;;;;;;5101381;28;20382;-84
2023/09/03 11:10:20;;;;;;;1.88;1.77;;;;;;;;;;5102790;28;20378;-84
2023/09/03 11:12:46;;;;;;;1.65;1.55;;;;;;;;;;5084785;28;20399;-84
2023/09/03 11:15:13;;;;;;;1.80;1.50;;;;;;;;;;5102216;28;20431;-84
2023/09/03 11:17:39;;;;;;;3.20;1.58;;;;;;;;;;5102808;28;20381;-84
2023/09/03 11:20:05;;;;;;;1.65;1.42;;;;;;;;;;5083799;28;20453;-85
2023/09/03 11:22:37;;;;;;;2.40;1.95;;;;;;;;;;5083970;28;20398;-85
2023/09/03 11:25:03;;;;;;;2.80;2.50;;;;;;;;;;5102471;28;20918;-84
2023/09/03 11:27:29;;;;;;;2.83;1.73;;;;;;;;;;5102161;28;20416;-84
2023/09/03 11:30:07;;;;;;;1.40;1.30;;;;;;;;;;5101448;28;20409;-84
2023/09/03 11:32:39;;;;;;;1.40;1.27;;;;;;;;;;5101266;28;20467;-84
2023/09/03 11:35:05;;;;;;;1.60;1.50;;;;;;;;;;5101645;28;20382;-84
2023/09/03 11:37:31;;;;;;;1.48;1.38;;;;;;;;;;5101544;28;20390;-84
2023/09/03 11:39:57;;;;;;;1.35;1.25;;;;;;;;;;5101514;28;20393;-84
2023/09/03 11:42:24;;;;;;;2.20;1.48;;;;;;;;;;5100981;28;20393;-84
2023/09/03 11:44:50;;;;;;;2.45;1.30;;;;;;;;;;5102122;28;20378;-84
2023/09/03 11:47:16;;;;;;;1.40;1.30;;;;;;;;;;5101082;28;20377;-84
2023/09/03 11:49:47;;;;;;;1.90;1.33;;;;;;;;;;5101391;28;20386;-84
2023/09/03 11:52:14;;;;;;;1.35;1.13;;;;;;;;;;5100666;28;20421;-84
2023/09/03 11:54:40;;;;;;;1.45;1.33;;;;;;;;;;5101913;28;20374;-84
2023/09/03 11:57:07;;;;;;;2.05;1.45;;;;;;;;;;5102124;28;20411;-84
2023/09/03 11:59:33;;;;;;;1.50;1.40;;;;;;;;;;5098658;28;20394;-84
2023/09/03 12:01:59;;;;;;;1.80;1.60;;;;;;;;;;5099440;28;20460;-84
2023/09/03 12:04:25;;;;;;;2.10;1.30;;;;;;;;;;5100003;28;20512;-84
2023/09/03 12:06:51;;;;;;;1.40;1.30;;;;;;;;;;5100624;28;20436;-84
2023/09/03 12:09:23;;;;;;;2.30;1.42;;;;;;;;;;5100954;28;20374;-84
2023/09/03 12:11:50;;;;;;;1.80;1.30;;;;;;;;;;5100904;28;20471;-84
2023/09/03 12:14:29;;;;;;;1.77;1.13;;;;;;;;;;5084004;28;20446;-84
2023/09/03 12:16:55;;;;;;;1.98;1.20;;;;;;;;;;5101272;28;20723;-84
2023/09/03 12:19:21;;;;;;;2.07;1.20;;;;;;;;;;5100596;28;20427;-84
2023/09/03 12:21:50;;;;;;;1.63;1.53;;;;;;;;;;5100937;28;20396;-84
2023/09/03 12:24:16;;;;;;;1.38;1.27;;;;;;;;;;5101518;28;20385;-84
2023/09/03 12:26:42;;;;;;;2.15;1.60;;;;;;;;;;5101378;28;20428;-84
2023/09/03 12:29:21;;;;;;;1.90;1.40;;;;;;;;;;5100013;28;20397;-84
2023/09/03 12:31:47;;;;;;;1.60;1.50;;;;;;;;;;5098219;28;20405;-84
2023/09/03 12:34:15;;;;;;;1.52;1.35;;;;;;;;;;5100644;28;20420;-85
2023/09/03 12:36:55;;;;;;;1.50;1.40;;;;;;;;;;5101173;28;20398;-84
2023/09/03 12:39:41;;;;;;;2.10;1.65;;;;;;;;;;5101127;28;20378;-85
2023/09/03 12:42:08;;;;;;;1.50;1.40;;;;;;;;;;5100553;28;20442;-84
2023/09/03 12:44:36;;;;;;;1.80;1.45;;;;;;;;;;5079721;28;20501;-85
2023/09/03 12:47:05;;;;;;;1.50;1.40;;;;;;;;;;5080220;28;20458;-84
2023/09/03 12:49:31;;;;;;;1.30;1.20;;;;;;;;;;5080763;28;20401;-84
2023/09/03 12:51:57;;;;;;;1.50;1.40;;;;;;;;;;5080232;28;20407;-84
2023/09/03 12:54:23;;;;;;;2.70;1.63;;;;;;;;;;5079885;28;20384;-84
2023/09/03 12:56:49;;;;;;;2.55;1.83;;;;;;;;;;5079646;28;20388;-84
2023/09/03 12:59:15;;;;;;;4.30;2.40;;;;;;;;;;5078024;28;20463;-84
2023/09/03 13:01:42;;;;;;;1.70;1.50;;;;;;;;;;5079421;28;20868;-84
2023/09/03 13:04:08;;;;;;;2.10;1.40;;;;;;;;;;5079049;28;20409;-84
2023/09/03 13:06:35;;;;;;;1.80;1.70;;;;;;;;;;5079118;28;20391;-84
2023/09/03 13:09:01;;;;;;;2.38;1.33;;;;;;;;;;5079639;28;20380;-84
2023/09/03 13:11:26;;;;;;;1.88;1.60;;;;;;;;;;5079204;28;20415;-84
2023/09/03 13:13:53;;;;;;;1.38;1.20;;;;;;;;;;5079865;28;20932;-84
2023/09/03 13:16:19;;;;;;;1.90;1.20;;;;;;;;;;5080296;28;20383;-84
2023/09/03 13:18:46;;;;;;;1.50;1.40;;;;;;;;;;5079256;28;20441;-85
2023/09/03 13:21:21;;;;;;;1.40;1.30;;;;;;;;;;5079476;28;20376;-84
2023/09/03 13:23:47;;;;;;;1.60;1.42;;;;;;;;;;5079046;28;20402;-85
2023/09/03 13:26:13;;;;;;;1.35;1.25;;;;;;;;;;5061618;28;20440;-84
2023/09/03 13:28:40;;;;;;;2.55;1.55;;;;;;;;;;5080312;28;20435;-84
2023/09/03 13:31:06;;;;;;;1.85;1.30;;;;;;;;;;5079082;28;20417;-84
2023/09/03 13:33:33;;;;;;;1.35;1.20;;;;;;;;;;5079706;28;20418;-84
2023/09/03 13:36:00;;;;;;;1.43;1.30;;;;;;;;;;5080025;28;20384;-84
2023/09/03 13:38:26;;;;;;;2.17;1.40;;;;;;;;;;5079618;28;20384;-84
2023/09/03 13:40:52;;;;;;;1.40;1.30;;;;;;;;;;5079178;28;20391;-84
2023/09/03 13:43:19;;;;;;;1.80;1.60;;;;;;;;;;5079213;28;20388;-84
2023/09/03 13:45:54;;;;;;;1.75;1.30;;;;;;;;;;5082730;28;21313;-84
2023/09/03 13:48:20;;;;;;;1.52;1.42;;;;;;;;;;5082221;28;20376;-84
2023/09/03 13:50:46;;;;;;;1.95;1.50;;;;;;;;;;5082441;28;20458;-84
2023/09/03 13:53:13;;;;;;;1.30;1.20;;;;;;;;;;5082392;28;20467;-84
2023/09/03 13:55:39;;;;;;;1.47;1.30;;;;;;;;;;5081988;28;20394;-84
2023/09/03 13:58:05;;;;;;;2.13;1.50;;;;;;;;;;5082539;28;20380;-84
2023/09/03 14:00:31;;;;;;;1.60;1.50;;;;;;;;;;5082127;28;20395;-84
2023/09/03 14:02:57;;;;;;;1.30;1.20;;;;;;;;;;5083519;28;20391;-84
2023/09/03 14:05:23;;;;;;;1.40;1.23;;;;;;;;;;5081838;28;20414;-84
2023/09/03 14:07:49;;;;;;;1.60;1.50;;;;;;;;;;5081334;28;21590;-84
2023/09/03 14:10:15;;;;;;;1.40;1.30;;;;;;;;;;5081744;28;20415;-84
2023/09/03 14:12:41;;;;;;;1.45;1.35;;;;;;;;;;5080916;28;20419;-84
2023/09/03 14:15:08;;;;;;;1.25;1.15;;;;;;;;;;5074878;28;20904;-84
2023/09/03 14:17:34;;;;;;;1.60;1.50;;;;;;;;;;5078962;28;20435;-84
2023/09/03 14:20:00;;;;;;;1.60;1.30;;;;;;;;;;5080910;28;20410;-84
2023/09/03 14:22:26;;;;;;;1.65;1.40;;;;;;;;;;5082022;28;20388;-84
2023/09/03 14:24:52;;;;;;;1.50;1.40;;;;;;;;;;5082650;28;20418;-84
2023/09/03 14:27:18;;;;;;;1.90;1.65;;;;;;;;;;5082459;28;20410;-84
2023/09/03 14:29:44;;;;;;;1.92;1.50;;;;;;;;;;5082207;28;20384;-84
2023/09/03 14:32:10;;;;;;;2.40;1.98;;;;;;;;;;5081630;28;20426;-84
2023/09/03 14:34:40;;;;;;;2.08;1.88;;;;;;;;;;5075632;28;20390;-83
2023/09/03 14:37:06;;;;;;;2.00;1.90;;;;;;;;;;5067685;28;20469;-82
2023/09/03 14:39:32;;;;;;;2.00;1.60;;;;;;;;;;5072157;28;20412;-82
2023/09/03 14:41:58;;;;;;;2.17;1.47;;;;;;;;;;5077435;28;20440;-81
2023/09/03 14:44:25;;;;;;;1.60;1.50;;;;;;;;;;5079284;28;20834;-82